sensor_id;sensor_type;location;lat;lon;timestamp;P1;durP1;ratioP1;P2;durP2;ratioP2
19225;SDS011;9747;48.536;12.522;2024-01-30T00:00:06;5.57;;;4.43;;
19225;SDS011;9747;48.536;12.522;2024-01-30T00:02:37;5.78;;;4.15;;
19225;SDS011;9747;48.536;12.522;2024-01-30T00:05:05;4.78;;;4.03;;
19225;SDS011;9747;48.536;12.522;2024-01-30T00:07:33;5.63;;;4.30;;
19225;SDS011;9747;48.536;12.522;2024-01-30T00:10:00;5.03;;;4.50;;
19225;SDS011;9747;48.536;12.522;2024-01-30T00:12:29;6.35;;;4.35;;
19225;SDS011;9747;48.536;12.522;2024-01-30T00:14:57;7.32;;;4.50;;
19225;SDS011;9747;48.536;12.522;2024-01-30T00:17:25;10.27;;;4.57;;
19225;SDS011;9747;48.536;12.522;2024-01-30T00:19:52;10.18;;;4.40;;
19225;SDS011;9747;48.536;12.522;2024-01-30T00:22:19;6.15;;;4.53;;
19225;SDS011;9747;48.536;12.522;2024-01-30T00:24:47;7.47;;;4.30;;
19225;SDS011;9747;48.536;12.522;2024-01-30T00:27:14;6.28;;;4.22;;
19225;SDS011;9747;48.536;12.522;2024-01-30T00:29:43;6.30;;;4.20;;
19225;SDS011;9747;48.536;12.522;2024-01-30T00:32:11;5.70;;;4.25;;
19225;SDS011;9747;48.536;12.522;2024-01-30T00:34:39;14.93;;;10.13;;
19225;SDS011;9747;48.536;12.522;2024-01-30T00:37:07;15.57;;;6.97;;
19225;SDS011;9747;48.536;12.522;2024-01-30T00:39:35;8.63;;;5.05;;
19225;SDS011;9747;48.536;12.522;2024-01-30T00:42:02;7.90;;;5.00;;
19225;SDS011;9747;48.536;12.522;2024-01-30T00:44:30;8.10;;;5.38;;
19225;SDS011;9747;48.536;12.522;2024-01-30T00:46:59;5.75;;;4.68;;
19225;SDS011;9747;48.536;12.522;2024-01-30T00:49:27;9.63;;;5.78;;
19225;SDS011;9747;48.536;12.522;2024-01-30T00:51:54;8.48;;;5.53;;
19225;SDS011;9747;48.536;12.522;2024-01-30T00:54:21;7.10;;;5.10;;
19225;SDS011;9747;48.536;12.522;2024-01-30T00:56:49;6.88;;;5.45;;
19225;SDS011;9747;48.536;12.522;2024-01-30T00:59:16;7.50;;;5.47;;
19225;SDS011;9747;48.536;12.522;2024-01-30T01:01:44;6.85;;;4.90;;
19225;SDS011;9747;48.536;12.522;2024-01-30T01:04:12;9.70;;;5.60;;
19225;SDS011;9747;48.536;12.522;2024-01-30T01:06:40;7.68;;;5.28;;
19225;SDS011;9747;48.536;12.522;2024-01-30T01:09:10;10.05;;;6.05;;
19225;SDS011;9747;48.536;12.522;2024-01-30T01:11:37;6.07;;;5.00;;
19225;SDS011;9747;48.536;12.522;2024-01-30T01:14:05;6.10;;;4.95;;
19225;SDS011;9747;48.536;12.522;2024-01-30T01:16:33;5.30;;;4.80;;
19225;SDS011;9747;48.536;12.522;2024-01-30T01:19:00;9.25;;;5.32;;
19225;SDS011;9747;48.536;12.522;2024-01-30T01:21:30;5.80;;;5.20;;
19225;SDS011;9747;48.536;12.522;2024-01-30T01:23:58;7.65;;;5.35;;
19225;SDS011;9747;48.536;12.522;2024-01-30T01:26:25;6.78;;;5.38;;
19225;SDS011;9747;48.536;12.522;2024-01-30T01:28:53;8.63;;;5.15;;
19225;SDS011;9747;48.536;12.522;2024-01-30T01:31:20;5.68;;;5.05;;
19225;SDS011;9747;48.536;12.522;2024-01-30T01:33:49;5.97;;;4.80;;
19225;SDS011;9747;48.536;12.522;2024-01-30T01:36:17;6.97;;;5.22;;
19225;SDS011;9747;48.536;12.522;2024-01-30T01:38:46;5.72;;;4.80;;
19225;SDS011;9747;48.536;12.522;2024-01-30T01:41:14;5.10;;;4.60;;
19225;SDS011;9747;48.536;12.522;2024-01-30T01:43:41;8.63;;;5.13;;
19225;SDS011;9747;48.536;12.522;2024-01-30T01:46:08;8.00;;;5.00;;
19225;SDS011;9747;48.536;12.522;2024-01-30T01:48:36;6.13;;;4.78;;
19225;SDS011;9747;48.536;12.522;2024-01-30T01:51:05;5.50;;;4.95;;
19225;SDS011;9747;48.536;12.522;2024-01-30T01:53:32;5.25;;;4.72;;
19225;SDS011;9747;48.536;12.522;2024-01-30T01:56:01;5.88;;;4.90;;
19225;SDS011;9747;48.536;12.522;2024-01-30T01:58:29;5.25;;;4.43;;
19225;SDS011;9747;48.536;12.522;2024-01-30T02:00:57;5.80;;;4.70;;
19225;SDS011;9747;48.536;12.522;2024-01-30T02:03:25;5.32;;;4.38;;
19225;SDS011;9747;48.536;12.522;2024-01-30T02:05:52;5.32;;;4.82;;
19225;SDS011;9747;48.536;12.522;2024-01-30T02:08:20;5.43;;;4.50;;
19225;SDS011;9747;48.536;12.522;2024-01-30T02:10:47;6.43;;;4.40;;
19225;SDS011;9747;48.536;12.522;2024-01-30T02:13:16;4.78;;;4.38;;
19225;SDS011;9747;48.536;12.522;2024-01-30T02:15:43;5.20;;;4.30;;
19225;SDS011;9747;48.536;12.522;2024-01-30T02:18:16;4.90;;;4.40;;
19225;SDS011;9747;48.536;12.522;2024-01-30T02:20:44;6.15;;;4.80;;
19225;SDS011;9747;48.536;12.522;2024-01-30T02:23:14;4.88;;;4.15;;
19225;SDS011;9747;48.536;12.522;2024-01-30T02:25:43;5.80;;;4.57;;
19225;SDS011;9747;48.536;12.522;2024-01-30T02:28:10;5.05;;;4.55;;
19225;SDS011;9747;48.536;12.522;2024-01-30T02:30:38;4.80;;;4.30;;
19225;SDS011;9747;48.536;12.522;2024-01-30T02:33:06;4.88;;;4.32;;
19225;SDS011;9747;48.536;12.522;2024-01-30T02:35:33;5.13;;;4.22;;
19225;SDS011;9747;48.536;12.522;2024-01-30T02:38:01;5.57;;;4.32;;
19225;SDS011;9747;48.536;12.522;2024-01-30T02:40:29;5.38;;;4.47;;
19225;SDS011;9747;48.536;12.522;2024-01-30T02:42:57;4.88;;;4.30;;
19225;SDS011;9747;48.536;12.522;2024-01-30T02:45:26;5.20;;;4.80;;
19225;SDS011;9747;48.536;12.522;2024-01-30T02:47:53;5.07;;;4.50;;
19225;SDS011;9747;48.536;12.522;2024-01-30T02:50:20;5.15;;;4.22;;
19225;SDS011;9747;48.536;12.522;2024-01-30T02:52:48;6.20;;;4.80;;
19225;SDS011;9747;48.536;12.522;2024-01-30T02:55:16;6.10;;;4.85;;
19225;SDS011;9747;48.536;12.522;2024-01-30T02:57:45;5.78;;;5.18;;
19225;SDS011;9747;48.536;12.522;2024-01-30T03:00:13;5.35;;;4.80;;
19225;SDS011;9747;48.536;12.522;2024-01-30T03:02:41;5.30;;;4.80;;
19225;SDS011;9747;48.536;12.522;2024-01-30T03:05:08;5.88;;;5.18;;
19225;SDS011;9747;48.536;12.522;2024-01-30T03:07:35;5.07;;;4.53;;
19225;SDS011;9747;48.536;12.522;2024-01-30T03:10:04;5.85;;;5.10;;
19225;SDS011;9747;48.536;12.522;2024-01-30T03:12:32;5.47;;;4.95;;
19225;SDS011;9747;48.536;12.522;2024-01-30T03:15:01;5.65;;;5.05;;
19225;SDS011;9747;48.536;12.522;2024-01-30T03:17:28;5.93;;;4.75;;
19225;SDS011;9747;48.536;12.522;2024-01-30T03:19:56;5.45;;;4.95;;
19225;SDS011;9747;48.536;12.522;2024-01-30T03:22:23;5.38;;;4.88;;
19225;SDS011;9747;48.536;12.522;2024-01-30T03:24:51;5.60;;;5.10;;
19225;SDS011;9747;48.536;12.522;2024-01-30T03:27:19;5.22;;;4.72;;
19225;SDS011;9747;48.536;12.522;2024-01-30T03:29:46;5.28;;;4.78;;
19225;SDS011;9747;48.536;12.522;2024-01-30T03:32:15;5.30;;;4.80;;
19225;SDS011;9747;48.536;12.522;2024-01-30T03:34:42;5.43;;;4.80;;
19225;SDS011;9747;48.536;12.522;2024-01-30T03:37:09;5.60;;;5.03;;
19225;SDS011;9747;48.536;12.522;2024-01-30T03:39:37;5.15;;;4.75;;
19225;SDS011;9747;48.536;12.522;2024-01-30T03:42:05;5.28;;;4.78;;
19225;SDS011;9747;48.536;12.522;2024-01-30T03:44:32;5.07;;;4.57;;
19225;SDS011;9747;48.536;12.522;2024-01-30T03:46:59;4.70;;;4.30;;
19225;SDS011;9747;48.536;12.522;2024-01-30T03:49:28;5.32;;;4.70;;
19225;SDS011;9747;48.536;12.522;2024-01-30T03:51:56;5.30;;;4.80;;
19225;SDS011;9747;48.536;12.522;2024-01-30T03:54:23;5.15;;;4.65;;
19225;SDS011;9747;48.536;12.522;2024-01-30T03:56:50;5.40;;;4.90;;
19225;SDS011;9747;48.536;12.522;2024-01-30T03:59:18;5.10;;;4.57;;
19225;SDS011;9747;48.536;12.522;2024-01-30T04:01:49;6.82;;;5.15;;
19225;SDS011;9747;48.536;12.522;2024-01-30T04:04:17;5.18;;;4.65;;
19225;SDS011;9747;48.536;12.522;2024-01-30T04:06:46;4.93;;;4.47;;
19225;SDS011;9747;48.536;12.522;2024-01-30T04:09:13;5.32;;;4.70;;
19225;SDS011;9747;48.536;12.522;2024-01-30T04:11:41;4.57;;;4.18;;
19225;SDS011;9747;48.536;12.522;2024-01-30T04:14:08;5.03;;;4.63;;
19225;SDS011;9747;48.536;12.522;2024-01-30T04:16:35;5.30;;;4.72;;
19225;SDS011;9747;48.536;12.522;2024-01-30T04:19:03;5.15;;;4.75;;
19225;SDS011;9747;48.536;12.522;2024-01-30T04:21:30;5.22;;;4.72;;
19225;SDS011;9747;48.536;12.522;2024-01-30T04:23:59;6.43;;;4.60;;
19225;SDS011;9747;48.536;12.522;2024-01-30T04:26:27;5.63;;;5.00;;
19225;SDS011;9747;48.536;12.522;2024-01-30T04:28:54;5.30;;;4.80;;
19225;SDS011;9747;48.536;12.522;2024-01-30T04:31:21;5.32;;;4.82;;
19225;SDS011;9747;48.536;12.522;2024-01-30T04:33:49;5.43;;;4.90;;
19225;SDS011;9747;48.536;12.522;2024-01-30T04:36:17;6.57;;;4.95;;
19225;SDS011;9747;48.536;12.522;2024-01-30T04:38:44;4.82;;;4.32;;
19225;SDS011;9747;48.536;12.522;2024-01-30T04:41:13;5.30;;;4.80;;
19225;SDS011;9747;48.536;12.522;2024-01-30T04:43:41;5.20;;;4.70;;
19225;SDS011;9747;48.536;12.522;2024-01-30T04:46:08;5.72;;;5.22;;
19225;SDS011;9747;48.536;12.522;2024-01-30T04:48:35;4.68;;;4.28;;
19225;SDS011;9747;48.536;12.522;2024-01-30T04:51:03;5.20;;;4.70;;
19225;SDS011;9747;48.536;12.522;2024-01-30T04:53:31;4.82;;;4.43;;
19225;SDS011;9747;48.536;12.522;2024-01-30T04:55:58;5.20;;;4.70;;
19225;SDS011;9747;48.536;12.522;2024-01-30T04:58:27;6.03;;;5.28;;
19225;SDS011;9747;48.536;12.522;2024-01-30T05:00:54;7.25;;;5.32;;
19225;SDS011;9747;48.536;12.522;2024-01-30T05:03:22;5.45;;;4.95;;
19225;SDS011;9747;48.536;12.522;2024-01-30T05:05:49;6.00;;;5.10;;
19225;SDS011;9747;48.536;12.522;2024-01-30T05:08:17;5.78;;;5.10;;
19225;SDS011;9747;48.536;12.522;2024-01-30T05:10:44;8.18;;;4.90;;
19225;SDS011;9747;48.536;12.522;2024-01-30T05:13:11;7.82;;;4.72;;
19225;SDS011;9747;48.536;12.522;2024-01-30T05:15:40;6.93;;;5.20;;
19225;SDS011;9747;48.536;12.522;2024-01-30T05:18:08;5.70;;;4.13;;
19225;SDS011;9747;48.536;12.522;2024-01-30T05:20:35;5.97;;;4.85;;
19225;SDS011;9747;48.536;12.522;2024-01-30T05:23:03;5.60;;;5.00;;
19225;SDS011;9747;48.536;12.522;2024-01-30T05:25:30;5.35;;;4.85;;
19225;SDS011;9747;48.536;12.522;2024-01-30T05:27:58;6.00;;;4.68;;
19225;SDS011;9747;48.536;12.522;2024-01-30T05:30:25;5.82;;;5.20;;
19225;SDS011;9747;48.536;12.522;2024-01-30T05:32:54;5.43;;;4.70;;
19225;SDS011;9747;48.536;12.522;2024-01-30T05:35:22;5.60;;;5.00;;
19225;SDS011;9747;48.536;12.522;2024-01-30T05:37:49;5.10;;;4.60;;
19225;SDS011;9747;48.536;12.522;2024-01-30T05:40:16;6.30;;;5.57;;
19225;SDS011;9747;48.536;12.522;2024-01-30T05:42:44;6.10;;;5.18;;
19225;SDS011;9747;48.536;12.522;2024-01-30T05:45:11;6.00;;;5.40;;
19225;SDS011;9747;48.536;12.522;2024-01-30T05:47:39;5.43;;;4.93;;
19225;SDS011;9747;48.536;12.522;2024-01-30T05:50:08;7.28;;;5.10;;
19225;SDS011;9747;48.536;12.522;2024-01-30T05:52:36;5.43;;;4.88;;
19225;SDS011;9747;48.536;12.522;2024-01-30T05:55:03;6.47;;;5.32;;
19225;SDS011;9747;48.536;12.522;2024-01-30T05:57:31;5.65;;;5.00;;
19225;SDS011;9747;48.536;12.522;2024-01-30T05:59:58;5.75;;;5.15;;
19225;SDS011;9747;48.536;12.522;2024-01-30T06:02:26;6.18;;;5.50;;
19225;SDS011;9747;48.536;12.522;2024-01-30T06:04:53;5.78;;;5.18;;
19225;SDS011;9747;48.536;12.522;2024-01-30T06:07:22;6.30;;;5.70;;
19225;SDS011;9747;48.536;12.522;2024-01-30T06:09:49;6.07;;;5.47;;
19225;SDS011;9747;48.536;12.522;2024-01-30T06:12:17;6.35;;;5.38;;
19225;SDS011;9747;48.536;12.522;2024-01-30T06:14:44;7.20;;;5.78;;
19225;SDS011;9747;48.536;12.522;2024-01-30T06:17:12;6.60;;;5.82;;
19225;SDS011;9747;48.536;12.522;2024-01-30T06:19:40;6.32;;;5.43;;
19225;SDS011;9747;48.536;12.522;2024-01-30T06:22:07;6.15;;;5.55;;
19225;SDS011;9747;48.536;12.522;2024-01-30T06:24:36;7.88;;;5.65;;
19225;SDS011;9747;48.536;12.522;2024-01-30T06:27:03;7.20;;;5.60;;
19225;SDS011;9747;48.536;12.522;2024-01-30T06:29:31;6.07;;;5.30;;
19225;SDS011;9747;48.536;12.522;2024-01-30T06:31:59;7.43;;;4.97;;
19225;SDS011;9747;48.536;12.522;2024-01-30T06:34:26;6.47;;;5.20;;
19225;SDS011;9747;48.536;12.522;2024-01-30T06:36:54;6.28;;;5.30;;
19225;SDS011;9747;48.536;12.522;2024-01-30T06:39:21;7.10;;;5.22;;
19225;SDS011;9747;48.536;12.522;2024-01-30T06:41:50;6.60;;;5.90;;
19225;SDS011;9747;48.536;12.522;2024-01-30T06:44:17;7.30;;;5.93;;
19225;SDS011;9747;48.536;12.522;2024-01-30T06:46:45;6.47;;;5.30;;
19225;SDS011;9747;48.536;12.522;2024-01-30T06:49:12;5.75;;;4.88;;
19225;SDS011;9747;48.536;12.522;2024-01-30T06:51:40;5.70;;;5.13;;
19225;SDS011;9747;48.536;12.522;2024-01-30T06:54:07;6.18;;;5.45;;
19225;SDS011;9747;48.536;12.522;2024-01-30T06:56:34;18.05;;;16.15;;
19225;SDS011;9747;48.536;12.522;2024-01-30T06:59:03;8.80;;;7.97;;
19225;SDS011;9747;48.536;12.522;2024-01-30T07:01:31;9.35;;;7.97;;
19225;SDS011;9747;48.536;12.522;2024-01-30T07:03:58;9.85;;;6.45;;
19225;SDS011;9747;48.536;12.522;2024-01-30T07:06:26;8.02;;;6.15;;
19225;SDS011;9747;48.536;12.522;2024-01-30T07:08:53;7.25;;;6.15;;
19225;SDS011;9747;48.536;12.522;2024-01-30T07:11:21;7.72;;;6.30;;
19225;SDS011;9747;48.536;12.522;2024-01-30T07:13:50;7.25;;;5.80;;
19225;SDS011;9747;48.536;12.522;2024-01-30T07:16:18;6.95;;;5.82;;
19225;SDS011;9747;48.536;12.522;2024-01-30T07:18:47;8.60;;;6.10;;
19225;SDS011;9747;48.536;12.522;2024-01-30T07:21:15;8.88;;;5.70;;
19225;SDS011;9747;48.536;12.522;2024-01-30T07:23:42;6.80;;;5.60;;
19225;SDS011;9747;48.536;12.522;2024-01-30T07:26:10;5.53;;;5.03;;
19225;SDS011;9747;48.536;12.522;2024-01-30T07:28:38;6.82;;;5.60;;
19225;SDS011;9747;48.536;12.522;2024-01-30T07:31:05;6.78;;;5.03;;
19225;SDS011;9747;48.536;12.522;2024-01-30T07:33:34;8.07;;;5.88;;
19225;SDS011;9747;48.536;12.522;2024-01-30T07:36:01;7.45;;;5.43;;
19225;SDS011;9747;48.536;12.522;2024-01-30T07:38:31;5.70;;;5.10;;
19225;SDS011;9747;48.536;12.522;2024-01-30T07:40:58;7.30;;;5.35;;
19225;SDS011;9747;48.536;12.522;2024-01-30T07:43:26;7.15;;;4.85;;
19225;SDS011;9747;48.536;12.522;2024-01-30T07:45:53;9.20;;;5.45;;
19225;SDS011;9747;48.536;12.522;2024-01-30T07:48:21;6.88;;;5.18;;
19225;SDS011;9747;48.536;12.522;2024-01-30T07:50:50;5.47;;;5.00;;
19225;SDS011;9747;48.536;12.522;2024-01-30T07:53:18;20.98;;;15.02;;
19225;SDS011;9747;48.536;12.522;2024-01-30T07:55:45;11.93;;;9.52;;
19225;SDS011;9747;48.536;12.522;2024-01-30T07:58:13;8.07;;;7.05;;
19225;SDS011;9747;48.536;12.522;2024-01-30T08:00:40;10.90;;;8.23;;
19225;SDS011;9747;48.536;12.522;2024-01-30T08:03:08;11.85;;;7.40;;
19225;SDS011;9747;48.536;12.522;2024-01-30T08:05:36;7.63;;;6.70;;
19225;SDS011;9747;48.536;12.522;2024-01-30T08:08:05;8.80;;;6.25;;
19225;SDS011;9747;48.536;12.522;2024-01-30T08:10:33;12.55;;;6.20;;
19225;SDS011;9747;48.536;12.522;2024-01-30T08:13:00;7.78;;;5.90;;
19225;SDS011;9747;48.536;12.522;2024-01-30T08:15:28;6.68;;;5.68;;
19225;SDS011;9747;48.536;12.522;2024-01-30T08:17:55;8.05;;;5.72;;
19225;SDS011;9747;48.536;12.522;2024-01-30T08:20:24;8.30;;;6.00;;
19225;SDS011;9747;48.536;12.522;2024-01-30T08:22:51;6.90;;;5.55;;
19225;SDS011;9747;48.536;12.522;2024-01-30T08:25:20;7.60;;;5.32;;
19225;SDS011;9747;48.536;12.522;2024-01-30T08:27:48;6.63;;;5.15;;
19225;SDS011;9747;48.536;12.522;2024-01-30T08:30:15;8.60;;;5.40;;
19225;SDS011;9747;48.536;12.522;2024-01-30T08:32:43;6.35;;;5.72;;
19225;SDS011;9747;48.536;12.522;2024-01-30T08:35:10;6.00;;;5.40;;
19225;SDS011;9747;48.536;12.522;2024-01-30T08:37:39;5.45;;;4.95;;
19225;SDS011;9747;48.536;12.522;2024-01-30T08:40:07;7.10;;;5.50;;
19225;SDS011;9747;48.536;12.522;2024-01-30T08:42:36;5.50;;;5.00;;
19225;SDS011;9747;48.536;12.522;2024-01-30T08:45:04;7.47;;;5.20;;
19225;SDS011;9747;48.536;12.522;2024-01-30T08:47:33;12.48;;;8.63;;
19225;SDS011;9747;48.536;12.522;2024-01-30T08:50:00;12.45;;;11.15;;
19225;SDS011;9747;48.536;12.522;2024-01-30T08:52:29;11.77;;;10.18;;
19225;SDS011;9747;48.536;12.522;2024-01-30T08:54:56;9.43;;;7.88;;
19225;SDS011;9747;48.536;12.522;2024-01-30T08:57:24;34.50;;;26.58;;
19225;SDS011;9747;48.536;12.522;2024-01-30T08:59:55;21.63;;;17.00;;
19225;SDS011;9747;48.536;12.522;2024-01-30T09:02:22;22.60;;;14.52;;
19225;SDS011;9747;48.536;12.522;2024-01-30T09:04:49;19.50;;;10.75;;
19225;SDS011;9747;48.536;12.522;2024-01-30T09:07:17;13.40;;;9.85;;
19225;SDS011;9747;48.536;12.522;2024-01-30T09:09:44;12.77;;;8.95;;
19225;SDS011;9747;48.536;12.522;2024-01-30T09:12:12;10.48;;;8.73;;
19225;SDS011;9747;48.536;12.522;2024-01-30T09:14:39;11.50;;;7.72;;
19225;SDS011;9747;48.536;12.522;2024-01-30T09:17:08;12.23;;;7.35;;
19225;SDS011;9747;48.536;12.522;2024-01-30T09:19:36;7.95;;;7.13;;
19225;SDS011;9747;48.536;12.522;2024-01-30T09:22:03;8.13;;;6.97;;
19225;SDS011;9747;48.536;12.522;2024-01-30T09:24:31;11.95;;;7.38;;
19225;SDS011;9747;48.536;12.522;2024-01-30T09:26:58;8.48;;;7.03;;
19225;SDS011;9747;48.536;12.522;2024-01-30T09:29:26;10.88;;;7.22;;
19225;SDS011;9747;48.536;12.522;2024-01-30T09:31:53;9.30;;;6.43;;
19225;SDS011;9747;48.536;12.522;2024-01-30T09:34:22;7.78;;;5.50;;
19225;SDS011;9747;48.536;12.522;2024-01-30T09:36:49;6.68;;;5.72;;
19225;SDS011;9747;48.536;12.522;2024-01-30T09:39:17;8.35;;;5.60;;
19225;SDS011;9747;48.536;12.522;2024-01-30T09:41:48;7.82;;;5.50;;
19225;SDS011;9747;48.536;12.522;2024-01-30T09:44:19;8.13;;;5.85;;
19225;SDS011;9747;48.536;12.522;2024-01-30T09:46:47;6.20;;;5.60;;
19225;SDS011;9747;48.536;12.522;2024-01-30T09:49:14;7.57;;;5.32;;
19225;SDS011;9747;48.536;12.522;2024-01-30T09:51:45;5.93;;;5.43;;
19225;SDS011;9747;48.536;12.522;2024-01-30T09:54:13;6.43;;;5.10;;
19225;SDS011;9747;48.536;12.522;2024-01-30T09:56:41;6.75;;;5.20;;
19225;SDS011;9747;48.536;12.522;2024-01-30T09:59:09;6.35;;;5.15;;
19225;SDS011;9747;48.536;12.522;2024-01-30T10:01:36;7.65;;;5.10;;
19225;SDS011;9747;48.536;12.522;2024-01-30T10:04:04;7.75;;;5.60;;
19225;SDS011;9747;48.536;12.522;2024-01-30T10:06:32;9.35;;;5.10;;
19225;SDS011;9747;48.536;12.522;2024-01-30T10:09:01;8.05;;;4.80;;
19225;SDS011;9747;48.536;12.522;2024-01-30T10:11:29;6.53;;;4.65;;
19225;SDS011;9747;48.536;12.522;2024-01-30T10:13:57;8.10;;;4.85;;
19225;SDS011;9747;48.536;12.522;2024-01-30T10:16:26;7.82;;;5.35;;
19225;SDS011;9747;48.536;12.522;2024-01-30T10:18:53;6.47;;;5.30;;
19225;SDS011;9747;48.536;12.522;2024-01-30T10:21:21;9.23;;;5.90;;
19225;SDS011;9747;48.536;12.522;2024-01-30T10:23:49;18.02;;;8.45;;
19225;SDS011;9747;48.536;12.522;2024-01-30T10:26:18;23.73;;;10.48;;
19225;SDS011;9747;48.536;12.522;2024-01-30T10:28:45;23.98;;;11.88;;
19225;SDS011;9747;48.536;12.522;2024-01-30T10:31:16;35.78;;;13.93;;
19225;SDS011;9747;48.536;12.522;2024-01-30T10:33:44;34.13;;;14.10;;
19225;SDS011;9747;48.536;12.522;2024-01-30T10:36:13;31.42;;;13.00;;
19225;SDS011;9747;48.536;12.522;2024-01-30T10:38:42;32.80;;;12.60;;
19225;SDS011;9747;48.536;12.522;2024-01-30T10:41:11;30.17;;;14.07;;
19225;SDS011;9747;48.536;12.522;2024-01-30T10:43:41;29.95;;;14.25;;
19225;SDS011;9747;48.536;12.522;2024-01-30T10:46:10;32.55;;;13.27;;
19225;SDS011;9747;48.536;12.522;2024-01-30T10:48:41;28.92;;;12.63;;
19225;SDS011;9747;48.536;12.522;2024-01-30T10:51:10;24.05;;;12.73;;
19225;SDS011;9747;48.536;12.522;2024-01-30T10:53:38;27.95;;;12.48;;
19225;SDS011;9747;48.536;12.522;2024-01-30T10:56:06;27.85;;;12.25;;
19225;SDS011;9747;48.536;12.522;2024-01-30T10:58:34;28.02;;;11.65;;
19225;SDS011;9747;48.536;12.522;2024-01-30T11:01:03;27.05;;;11.82;;
19225;SDS011;9747;48.536;12.522;2024-01-30T11:03:32;29.88;;;12.63;;
19225;SDS011;9747;48.536;12.522;2024-01-30T11:06:02;25.45;;;10.73;;
19225;SDS011;9747;48.536;12.522;2024-01-30T11:08:31;21.95;;;10.90;;
19225;SDS011;9747;48.536;12.522;2024-01-30T11:10:59;24.02;;;10.68;;
19225;SDS011;9747;48.536;12.522;2024-01-30T11:13:27;26.63;;;10.35;;
19225;SDS011;9747;48.536;12.522;2024-01-30T11:15:55;19.63;;;9.73;;
19225;SDS011;9747;48.536;12.522;2024-01-30T11:18:28;24.23;;;10.23;;
19225;SDS011;9747;48.536;12.522;2024-01-30T11:20:57;20.38;;;9.52;;
19225;SDS011;9747;48.536;12.522;2024-01-30T11:23:27;19.08;;;9.38;;
19225;SDS011;9747;48.536;12.522;2024-01-30T11:25:55;22.73;;;9.75;;
19225;SDS011;9747;48.536;12.522;2024-01-30T11:28:23;16.88;;;8.82;;
19225;SDS011;9747;48.536;12.522;2024-01-30T11:30:51;19.98;;;8.80;;
19225;SDS011;9747;48.536;12.522;2024-01-30T11:33:30;17.95;;;8.65;;
19225;SDS011;9747;48.536;12.522;2024-01-30T11:35:58;17.52;;;8.82;;
19225;SDS011;9747;48.536;12.522;2024-01-30T11:38:26;21.80;;;8.82;;
19225;SDS011;9747;48.536;12.522;2024-01-30T11:40:55;17.77;;;8.43;;
19225;SDS011;9747;48.536;12.522;2024-01-30T11:43:23;16.13;;;8.13;;
19225;SDS011;9747;48.536;12.522;2024-01-30T11:45:51;16.17;;;8.13;;
19225;SDS011;9747;48.536;12.522;2024-01-30T11:48:18;14.73;;;7.47;;
19225;SDS011;9747;48.536;12.522;2024-01-30T11:50:47;16.67;;;8.23;;
19225;SDS011;9747;48.536;12.522;2024-01-30T11:53:15;16.77;;;8.10;;
19225;SDS011;9747;48.536;12.522;2024-01-30T11:55:49;15.35;;;7.90;;
19225;SDS011;9747;48.536;12.522;2024-01-30T11:58:16;15.93;;;7.57;;
19225;SDS011;9747;48.536;12.522;2024-01-30T12:00:52;17.80;;;7.53;;
19225;SDS011;9747;48.536;12.522;2024-01-30T12:03:21;13.70;;;7.65;;
19225;SDS011;9747;48.536;12.522;2024-01-30T12:05:55;12.43;;;7.05;;
19225;SDS011;9747;48.536;12.522;2024-01-30T12:08:24;14.45;;;6.45;;
19225;SDS011;9747;48.536;12.522;2024-01-30T12:10:56;13.57;;;7.05;;
19225;SDS011;9747;48.536;12.522;2024-01-30T12:13:26;14.30;;;6.90;;
19225;SDS011;9747;48.536;12.522;2024-01-30T12:15:54;11.63;;;6.75;;
19225;SDS011;9747;48.536;12.522;2024-01-30T12:18:21;13.05;;;6.05;;
19225;SDS011;9747;48.536;12.522;2024-01-30T12:20:57;10.63;;;6.32;;
19225;SDS011;9747;48.536;12.522;2024-01-30T12:23:26;12.43;;;6.05;;
19225;SDS011;9747;48.536;12.522;2024-01-30T12:25:54;10.07;;;5.85;;
19225;SDS011;9747;48.536;12.522;2024-01-30T12:28:21;12.90;;;6.28;;
19225;SDS011;9747;48.536;12.522;2024-01-30T12:30:49;11.32;;;5.63;;
19225;SDS011;9747;48.536;12.522;2024-01-30T12:33:17;11.88;;;6.22;;
19225;SDS011;9747;48.536;12.522;2024-01-30T12:35:45;11.00;;;5.78;;
19225;SDS011;9747;48.536;12.522;2024-01-30T12:38:14;11.30;;;6.07;;
19225;SDS011;9747;48.536;12.522;2024-01-30T12:40:42;11.32;;;5.85;;
19225;SDS011;9747;48.536;12.522;2024-01-30T12:43:10;10.38;;;5.65;;
19225;SDS011;9747;48.536;12.522;2024-01-30T12:45:37;9.95;;;5.55;;
19225;SDS011;9747;48.536;12.522;2024-01-30T12:48:05;10.80;;;5.32;;
19225;SDS011;9747;48.536;12.522;2024-01-30T12:50:33;9.05;;;5.18;;
19225;SDS011;9747;48.536;12.522;2024-01-30T12:53:01;8.48;;;5.38;;
19225;SDS011;9747;48.536;12.522;2024-01-30T12:55:29;10.05;;;5.22;;
19225;SDS011;9747;48.536;12.522;2024-01-30T12:57:57;8.57;;;5.30;;
19225;SDS011;9747;48.536;12.522;2024-01-30T13:00:24;11.57;;;5.07;;
19225;SDS011;9747;48.536;12.522;2024-01-30T13:02:52;7.82;;;5.00;;
19225;SDS011;9747;48.536;12.522;2024-01-30T13:05:19;9.68;;;5.20;;
19225;SDS011;9747;48.536;12.522;2024-01-30T13:07:47;10.35;;;5.07;;
19225;SDS011;9747;48.536;12.522;2024-01-30T13:10:15;7.72;;;5.30;;
19225;SDS011;9747;48.536;12.522;2024-01-30T13:12:43;10.32;;;4.93;;
19225;SDS011;9747;48.536;12.522;2024-01-30T13:15:11;12.27;;;8.68;;
19225;SDS011;9747;48.536;12.522;2024-01-30T13:17:38;9.40;;;5.95;;
19225;SDS011;9747;48.536;12.522;2024-01-30T13:20:08;9.15;;;5.28;;
19225;SDS011;9747;48.536;12.522;2024-01-30T13:22:36;7.65;;;4.68;;
19225;SDS011;9747;48.536;12.522;2024-01-30T13:25:05;9.57;;;4.85;;
19225;SDS011;9747;48.536;12.522;2024-01-30T13:27:33;8.35;;;4.97;;
19225;SDS011;9747;48.536;12.522;2024-01-30T13:30:02;8.73;;;4.93;;
19225;SDS011;9747;48.536;12.522;2024-01-30T13:32:30;8.18;;;4.75;;
19225;SDS011;9747;48.536;12.522;2024-01-30T13:34:57;7.05;;;4.53;;
19225;SDS011;9747;48.536;12.522;2024-01-30T13:37:25;8.30;;;4.72;;
19225;SDS011;9747;48.536;12.522;2024-01-30T13:39:52;7.20;;;4.65;;
19225;SDS011;9747;48.536;12.522;2024-01-30T13:42:19;7.70;;;4.75;;
19225;SDS011;9747;48.536;12.522;2024-01-30T13:44:48;6.63;;;4.20;;
19225;SDS011;9747;48.536;12.522;2024-01-30T13:47:16;5.13;;;4.32;;
19225;SDS011;9747;48.536;12.522;2024-01-30T13:49:46;6.22;;;4.53;;
19225;SDS011;9747;48.536;12.522;2024-01-30T13:52:14;9.20;;;4.43;;
19225;SDS011;9747;48.536;12.522;2024-01-30T13:54:41;7.47;;;4.70;;
19225;SDS011;9747;48.536;12.522;2024-01-30T13:57:08;6.68;;;4.30;;
19225;SDS011;9747;48.536;12.522;2024-01-30T13:59:37;6.55;;;4.32;;
19225;SDS011;9747;48.536;12.522;2024-01-30T14:02:05;7.13;;;4.40;;
19225;SDS011;9747;48.536;12.522;2024-01-30T14:04:36;5.85;;;4.05;;
19225;SDS011;9747;48.536;12.522;2024-01-30T14:07:04;7.65;;;4.72;;
19225;SDS011;9747;48.536;12.522;2024-01-30T14:09:32;5.75;;;4.28;;
19225;SDS011;9747;48.536;12.522;2024-01-30T14:11:59;5.25;;;4.47;;
19225;SDS011;9747;48.536;12.522;2024-01-30T14:14:27;6.78;;;3.50;;
19225;SDS011;9747;48.536;12.522;2024-01-30T14:16:54;6.00;;;4.03;;
19225;SDS011;9747;48.536;12.522;2024-01-30T14:19:22;6.80;;;3.90;;
19225;SDS011;9747;48.536;12.522;2024-01-30T14:21:51;5.85;;;4.30;;
19225;SDS011;9747;48.536;12.522;2024-01-30T14:24:18;4.90;;;4.38;;
19225;SDS011;9747;48.536;12.522;2024-01-30T14:26:45;12.02;;;7.28;;
19225;SDS011;9747;48.536;12.522;2024-01-30T14:29:13;12.40;;;9.45;;
19225;SDS011;9747;48.536;12.522;2024-01-30T14:31:40;9.77;;;5.25;;
19225;SDS011;9747;48.536;12.522;2024-01-30T14:34:08;5.03;;;4.53;;
19225;SDS011;9747;48.536;12.522;2024-01-30T14:36:35;7.63;;;4.68;;
19225;SDS011;9747;48.536;12.522;2024-01-30T14:39:04;7.75;;;4.50;;
19225;SDS011;9747;48.536;12.522;2024-01-30T14:41:32;6.32;;;4.68;;
19225;SDS011;9747;48.536;12.522;2024-01-30T14:44:00;5.03;;;4.30;;
19225;SDS011;9747;48.536;12.522;2024-01-30T14:46:28;9.07;;;4.32;;